Terminal Aerodrome Forecast
Issued by NWS

Home | Current Version | Previous Version | Text Only | Print | Product List | Glossary On
Versions: 1 2 3 4 5 6 7 8 9 10 11 12 13 14
000
FTUS45 KABQ 221737
TAFROW
TAF
KROW 221737Z 2218/2318 VRB06KT P6SM SKC
     FM222200 17010KT P6SM VCSH SCT130
     FM230200 16009KT P6SM BKN150
     FM231000 36017G27KT P6SM SKC=

USA.gov is the U.S. government's official web portal to all federal, state and local government web resources and services.